createdAt,value
2023-01-19T06:28:24.391Z,8
2023-01-19T06:30:23.925Z,9
2023-01-19T06:32:23.941Z,9
2023-01-19T06:34:24.047Z,9
2023-01-19T06:36:24.145Z,8
2023-01-19T06:38:24.267Z,7
2023-01-19T06:40:24.366Z,8
2023-01-19T06:42:24.462Z,7
2023-01-19T06:44:24.688Z,7
2023-01-19T06:48:24.802Z,7
2023-01-19T06:50:24.907Z,12
2023-01-19T06:52:25.011Z,12
2023-01-19T06:54:25.095Z,12
2023-01-19T06:56:25.224Z,10
2023-01-19T06:58:25.312Z,10
2023-01-19T07:00:25.493Z,9
2023-01-19T07:02:26.570Z,8
2023-01-19T07:04:25.811Z,8
2023-01-19T07:08:25.905Z,10
2023-01-19T07:12:26.074Z,10
2023-01-19T07:14:26.194Z,16
2023-01-19T07:16:26.326Z,20
2023-01-19T07:18:26.365Z,48
2023-01-19T07:20:26.480Z,117
2023-01-19T07:22:26.610Z,147
2023-01-19T07:24:26.667Z,136
2023-01-19T07:26:26.760Z,150
2023-01-19T07:28:26.885Z,104
2023-01-19T07:30:27.060Z,82
2023-01-19T07:32:27.071Z,32
2023-01-19T07:34:27.193Z,20
2023-01-19T07:36:27.295Z,15
2023-01-19T07:38:27.375Z,20
2023-01-19T07:40:27.473Z,12
2023-01-19T07:42:27.581Z,15
2023-01-19T07:44:27.695Z,49
2023-01-19T07:46:27.836Z,36
2023-01-19T07:48:27.844Z,36
2023-01-19T07:50:27.942Z,26
2023-01-19T07:52:28.046Z,16
2023-01-19T07:54:28.151Z,18
2023-01-19T07:56:28.242Z,24
2023-01-19T07:58:28.356Z,16
2023-01-19T08:00:28.465Z,16
2023-01-19T08:02:28.538Z,18
2023-01-19T08:04:28.649Z,14
2023-01-19T08:06:28.742Z,15
2023-01-19T08:08:28.819Z,17
2023-01-19T08:10:28.931Z,16
2023-01-19T08:12:29.039Z,15
2023-01-19T08:14:29.152Z,14
2023-01-19T08:16:29.191Z,15
2023-01-19T08:18:29.261Z,12
2023-01-19T08:22:29.466Z,14
2023-01-19T08:24:29.550Z,12
2023-01-19T08:26:29.778Z,9
2023-01-19T08:28:29.727Z,10
2023-01-19T08:30:29.788Z,10
2023-01-19T08:32:29.975Z,10
2023-01-19T08:34:29.981Z,10
2023-01-19T08:36:30.073Z,10
2023-01-19T08:38:30.193Z,11
2023-01-19T08:40:30.263Z,11
2023-01-19T08:42:30.316Z,12
2023-01-19T08:44:30.572Z,12
2023-01-19T08:46:30.562Z,10
2023-01-19T08:48:30.622Z,11
2023-01-19T08:50:30.695Z,10
2023-01-19T08:52:30.786Z,8
2023-01-19T08:57:01.146Z,8
2023-01-19T08:59:09.235Z,7
2023-01-19T09:01:03.116Z,7
2023-01-19T09:03:01.666Z,7
2023-01-19T09:05:01.476Z,8
2023-01-19T09:07:01.599Z,8
2023-01-19T09:11:01.866Z,8
2023-01-19T09:13:01.924Z,7
2023-01-19T09:15:02.025Z,8
2023-01-19T09:17:02.188Z,9
2023-01-19T09:19:02.224Z,7
2023-01-19T09:23:02.445Z,7
2023-01-19T09:25:02.641Z,14
2023-01-19T09:27:02.693Z,12
2023-01-19T09:29:02.817Z,8
2023-01-19T09:31:03.000Z,8
2023-01-19T09:33:03.037Z,6
2023-01-19T09:35:03.601Z,6
2023-01-19T09:37:03.254Z,8
2023-01-19T09:39:03.384Z,11
2023-01-19T09:41:03.493Z,15
2023-01-19T09:45:03.749Z,9
2023-01-19T09:47:03.808Z,15
2023-01-19T09:49:03.886Z,11
2023-01-19T09:51:03.995Z,9
2023-01-19T09:53:04.106Z,6
2023-01-19T09:55:04.208Z,5
2023-01-19T09:57:04.306Z,4
2023-01-19T09:59:04.378Z,4
2023-01-19T10:01:04.643Z,5
2023-01-19T10:03:04.726Z,4
2023-01-19T10:05:04.684Z,3
2023-01-19T10:07:04.790Z,3
2023-01-19T10:09:04.960Z,3
2023-01-19T10:11:04.976Z,3
2023-01-19T10:13:05.171Z,4
2023-01-19T10:15:05.197Z,5
2023-01-19T10:17:05.312Z,5
2023-01-19T10:19:05.415Z,6
2023-01-19T10:21:05.787Z,5
2023-01-19T10:23:05.595Z,7
2023-01-19T10:25:05.663Z,19
2023-01-19T10:27:05.770Z,76
2023-01-19T10:29:05.880Z,79
2023-01-19T10:31:06.063Z,94
2023-01-19T10:33:06.061Z,57
2023-01-19T10:35:06.176Z,41
2023-01-19T10:37:06.281Z,23
2023-01-19T10:39:06.371Z,22
2023-01-19T10:41:06.495Z,19
2023-01-19T10:43:06.606Z,12
2023-01-19T10:45:06.675Z,16
2023-01-19T10:47:06.743Z,18
2023-01-19T10:49:06.827Z,21
2023-01-19T10:51:06.928Z,23
2023-01-19T10:53:07.076Z,29
2023-01-19T10:55:07.121Z,18
2023-01-19T10:57:07.274Z,17
2023-01-19T10:59:07.280Z,15
2023-01-19T11:01:07.506Z,16
2023-01-19T11:03:07.583Z,14
2023-01-19T11:05:07.576Z,16
2023-01-19T11:07:07.842Z,15
2023-01-19T11:09:07.780Z,15
2023-01-19T11:11:07.870Z,28
2023-01-19T11:13:07.967Z,15
2023-01-19T11:15:08.070Z,19
2023-01-19T11:17:08.154Z,11
2023-01-19T11:19:08.241Z,8
2023-01-19T11:21:08.336Z,7
2023-01-19T11:23:08.464Z,9
2023-01-19T11:25:08.525Z,5
2023-01-19T11:27:08.659Z,6
2023-01-19T11:31:08.900Z,4
2023-01-19T11:33:08.900Z,4
2023-01-19T11:35:08.981Z,4
2023-01-19T11:37:09.076Z,6
2023-01-19T11:39:09.173Z,7
2023-01-19T11:41:09.235Z,10
2023-01-19T11:43:09.312Z,12
2023-01-19T11:45:09.402Z,11
2023-01-19T11:47:09.490Z,11
2023-01-19T11:49:09.609Z,12
2023-01-19T11:51:09.666Z,14
2023-01-19T11:53:09.759Z,11
2023-01-19T11:55:09.873Z,12
2023-01-19T11:57:09.948Z,12
2023-01-19T11:59:10.035Z,14
2023-01-19T12:01:10.133Z,14
2023-01-19T12:03:10.269Z,15
2023-01-19T12:05:10.329Z,15
2023-01-19T12:07:10.427Z,19
2023-01-19T12:09:10.557Z,15
2023-01-19T12:11:10.600Z,15
2023-01-19T12:13:10.694Z,13
2023-01-19T12:15:10.790Z,17
2023-01-19T12:17:10.852Z,18
2023-01-19T12:19:10.953Z,26
2023-01-19T12:21:11.058Z,30
2023-01-19T12:23:11.171Z,32
2023-01-19T12:25:11.237Z,37
2023-01-19T12:27:11.335Z,23
2023-01-19T12:29:11.397Z,22
2023-01-19T12:31:11.662Z,23
2023-01-19T12:33:11.775Z,18
2023-01-19T12:35:11.649Z,16
2023-01-19T12:37:13.670Z,17
2023-01-19T12:39:11.817Z,20
2023-01-19T12:41:11.919Z,16
2023-01-19T12:43:11.964Z,16
2023-01-19T12:45:12.087Z,15
2023-01-19T12:47:12.144Z,16
2023-01-19T12:49:12.244Z,17
2023-01-19T12:53:42.469Z,13
2023-01-19T12:55:42.577Z,8
2023-01-19T12:57:42.675Z,14
2023-01-19T12:59:42.769Z,15
2023-01-19T13:01:43.048Z,14
2023-01-19T13:03:43.063Z,15
2023-01-19T13:05:43.124Z,14
2023-01-19T13:07:43.258Z,14
2023-01-19T13:09:43.422Z,8
2023-01-19T13:11:48.431Z,11
2023-01-19T13:13:43.552Z,13
2023-01-19T13:15:43.645Z,12
2023-01-19T13:17:43.755Z,17
2023-01-19T13:19:43.842Z,14
2023-01-19T13:21:44.836Z,16
2023-01-19T13:23:44.084Z,15
2023-01-19T13:25:44.202Z,14
2023-01-19T13:27:44.290Z,13
2023-01-19T13:29:44.414Z,16
2023-01-19T13:31:44.723Z,17
2023-01-19T13:33:44.603Z,16
2023-01-19T13:35:44.696Z,16
2023-01-19T13:37:44.842Z,19
2023-01-19T13:39:44.927Z,19
2023-01-19T13:41:45.259Z,21
2023-01-19T13:43:45.247Z,29
2023-01-19T13:45:45.304Z,28
2023-01-19T13:47:45.375Z,34
2023-01-19T13:49:45.476Z,36
2023-01-19T13:51:45.569Z,34
2023-01-19T13:53:45.681Z,30
2023-01-19T13:55:45.804Z,23
2023-01-19T13:57:45.877Z,25
2023-01-19T13:59:46.015Z,31
2023-01-19T14:01:46.248Z,31
2023-01-19T14:03:46.195Z,24
2023-01-19T14:05:46.415Z,26
2023-01-19T14:07:46.558Z,30
2023-01-19T14:09:46.566Z,25
2023-01-19T14:11:46.641Z,24
2023-01-19T14:13:46.798Z,28
2023-01-19T14:15:46.934Z,29
2023-01-19T14:17:49.850Z,29
2023-01-19T14:19:47.083Z,63
2023-01-19T14:21:47.167Z,57
2023-01-19T14:23:47.276Z,57
2023-01-19T14:25:47.369Z,50
2023-01-19T14:27:47.467Z,50
2023-01-19T14:29:47.578Z,45
2023-01-19T14:31:47.669Z,45
2023-01-19T14:33:47.759Z,46
2023-01-19T14:35:47.857Z,34
2023-01-19T14:37:47.967Z,34
2023-01-19T14:39:48.107Z,39
2023-01-19T14:41:48.247Z,45
2023-01-19T14:43:48.300Z,30
2023-01-19T14:45:48.400Z,33
2023-01-19T14:47:48.505Z,34
2023-01-19T14:49:48.586Z,32
2023-01-19T14:51:48.690Z,30
2023-01-19T14:53:48.803Z,30
2023-01-19T14:55:48.931Z,23
2023-01-19T14:57:49.019Z,25
2023-01-19T14:59:49.133Z,24
2023-01-19T15:03:49.341Z,23
2023-01-19T15:05:49.575Z,25
2023-01-19T15:07:49.522Z,26
2023-01-19T15:09:49.628Z,29
2023-01-19T15:11:49.746Z,36
2023-01-19T15:13:49.783Z,28
2023-01-19T15:15:49.968Z,31
2023-01-19T15:17:50.004Z,49
2023-01-19T15:19:50.088Z,32
2023-01-19T15:21:50.215Z,37
2023-01-19T15:23:50.295Z,28
2023-01-19T15:25:50.358Z,33
2023-01-19T15:27:50.453Z,33
2023-01-19T15:29:50.561Z,31
2023-01-19T15:31:50.736Z,27
2023-01-19T15:33:50.760Z,36
2023-01-19T15:35:50.911Z,34
2023-01-19T15:37:50.974Z,31
2023-01-19T15:39:51.070Z,33
2023-01-19T15:41:51.211Z,33
2023-01-19T15:43:51.267Z,48
2023-01-19T15:45:51.464Z,38
2023-01-19T15:47:51.486Z,33
2023-01-19T15:49:51.545Z,30
2023-01-19T15:51:51.765Z,38
2023-01-19T15:53:51.769Z,36
2023-01-19T15:55:51.880Z,38
2023-01-19T15:57:51.972Z,34
2023-01-19T15:59:52.079Z,32
2023-01-19T16:01:52.332Z,31
2023-01-19T16:03:52.275Z,30
2023-01-19T16:05:52.382Z,34
2023-01-19T16:07:52.420Z,35
2023-01-19T16:09:52.516Z,43
2023-01-19T16:11:52.610Z,42
2023-01-19T16:13:52.739Z,44
2023-01-19T16:15:52.839Z,45
2023-01-19T16:17:52.923Z,43
2023-01-19T16:19:53.037Z,42
2023-01-19T16:21:53.076Z,43
2023-01-19T16:23:53.121Z,64
2023-01-19T16:25:53.239Z,104
2023-01-19T16:27:53.333Z,102
2023-01-19T16:29:53.445Z,87
2023-01-19T16:31:53.617Z,73
2023-01-19T16:33:53.602Z,59
2023-01-19T16:35:53.717Z,60
2023-01-19T16:37:53.826Z,54
2023-01-19T16:39:53.879Z,55
2023-01-19T16:41:54.026Z,56
2023-01-19T16:43:54.070Z,55
2023-01-19T16:45:54.203Z,58
2023-01-19T16:47:54.274Z,60
2023-01-19T16:49:54.373Z,56
2023-01-19T16:51:54.419Z,58
2023-01-19T16:53:54.501Z,71
2023-01-19T16:55:54.599Z,86
2023-01-19T16:57:54.698Z,95
2023-01-19T16:59:54.792Z,75
2023-01-19T17:01:55.022Z,60
2023-01-19T17:03:54.990Z,62
2023-01-19T17:05:55.083Z,62
2023-01-19T17:07:55.172Z,56
2023-01-19T17:09:55.268Z,52
2023-01-19T17:11:55.374Z,54
2023-01-19T17:13:55.447Z,49
2023-01-19T17:15:55.548Z,59
2023-01-19T17:17:55.607Z,40
2023-01-19T17:19:55.687Z,35
2023-01-19T17:21:55.799Z,24
2023-01-19T17:23:55.927Z,26
2023-01-19T17:25:55.948Z,27
2023-01-19T17:27:56.045Z,26
2023-01-19T17:29:56.137Z,41
2023-01-19T17:31:56.206Z,42
2023-01-19T17:33:56.282Z,50
2023-01-19T17:36:26.436Z,49
2023-01-19T17:38:26.535Z,47
2023-01-19T17:42:26.774Z,45
2023-01-19T17:44:26.919Z,40
2023-01-19T17:46:27.081Z,35
2023-01-19T17:48:27.266Z,39
2023-01-19T17:50:27.266Z,44
2023-01-19T17:52:27.368Z,43
2023-01-19T17:54:27.507Z,41
2023-01-19T17:56:27.622Z,42
2023-01-19T17:58:27.727Z,47
2023-01-19T18:00:27.902Z,46
2023-01-19T18:02:27.980Z,49
2023-01-19T18:04:28.107Z,50
2023-01-19T18:06:28.229Z,47
2023-01-19T18:08:28.316Z,45
2023-01-19T18:10:28.479Z,44
2023-01-19T18:12:28.541Z,44
2023-01-19T18:14:28.652Z,42
2023-01-19T18:16:28.783Z,35
2023-01-19T18:18:28.918Z,29
2023-01-19T18:20:31.506Z,27
2023-01-19T18:22:29.112Z,33
2023-01-19T18:24:29.222Z,33
2023-01-19T18:26:29.435Z,33
2023-01-19T18:28:29.432Z,43
2023-01-19T18:30:29.567Z,50
2023-01-19T18:32:29.657Z,54
2023-01-19T18:34:29.810Z,50
2023-01-19T18:36:29.877Z,56
2023-01-19T18:38:29.974Z,75
2023-01-19T18:40:30.112Z,93
2023-01-19T18:42:30.222Z,82
2023-01-19T18:44:30.313Z,73
2023-01-19T18:46:30.514Z,73
2023-01-19T18:48:30.645Z,66
2023-01-19T18:50:30.728Z,61
2023-01-19T18:52:30.738Z,59
2023-01-19T18:54:30.860Z,56
2023-01-19T18:56:30.976Z,55
2023-01-19T18:58:31.092Z,53
2023-01-19T19:00:31.217Z,64
2023-01-19T19:02:31.288Z,53
2023-01-19T19:04:31.391Z,66
2023-01-19T19:06:31.523Z,60
2023-01-19T19:08:31.600Z,54
2023-01-19T19:10:31.858Z,52
2023-01-19T19:12:31.828Z,51
2023-01-19T19:14:31.955Z,42
2023-01-19T19:16:35.127Z,31
2023-01-19T19:18:32.209Z,31
2023-01-19T19:20:32.332Z,32
2023-01-19T19:22:32.475Z,31
2023-01-19T19:24:32.474Z,31
2023-01-19T19:26:32.567Z,29
2023-01-19T19:28:32.692Z,22
2023-01-19T19:30:32.825Z,21
2023-01-19T19:32:32.930Z,19
2023-01-19T19:34:33.013Z,24
2023-01-19T19:36:33.187Z,30
2023-01-19T19:38:33.192Z,38
2023-01-19T19:40:33.333Z,45
2023-01-19T19:42:33.408Z,40
2023-01-19T19:44:33.498Z,38
2023-01-19T19:46:33.641Z,37
2023-01-19T19:48:33.742Z,31
2023-01-19T19:50:33.873Z,30
2023-01-19T19:52:33.927Z,26
2023-01-19T19:56:31.277Z,23
2023-01-19T19:58:30.886Z,23
2023-01-19T20:00:31.003Z,24
2023-01-19T20:02:31.057Z,25
2023-01-19T20:04:31.182Z,24
2023-01-19T20:06:31.270Z,25
2023-01-19T20:08:31.375Z,26
2023-01-19T20:10:31.512Z,27
2023-01-19T20:12:31.590Z,26
2023-01-19T20:14:31.710Z,26
2023-01-19T20:16:31.840Z,26
2023-01-19T20:18:31.993Z,27
2023-01-19T20:20:32.127Z,31
2023-01-19T20:22:32.213Z,35
2023-01-19T20:24:32.316Z,35
2023-01-19T20:26:32.396Z,44
2023-01-19T20:28:32.525Z,45
2023-01-19T20:30:32.759Z,45
2023-01-19T20:32:33.004Z,38
2023-01-19T20:34:33.527Z,35
2023-01-19T20:36:32.909Z,43
2023-01-19T20:38:32.990Z,37
2023-01-19T20:40:33.079Z,37
2023-01-19T20:42:33.184Z,37
2023-01-19T20:44:33.292Z,36
2023-01-19T20:46:33.371Z,40
2023-01-19T20:48:33.449Z,42
2023-01-19T20:50:33.569Z,44
2023-01-19T20:52:33.674Z,42
2023-01-19T20:54:33.800Z,26
2023-01-19T20:56:33.852Z,29
2023-01-19T20:58:33.975Z,24
2023-01-19T21:00:34.199Z,25
2023-01-19T21:02:34.218Z,24
2023-01-19T21:04:34.244Z,19
2023-01-19T21:06:34.352Z,14
2023-01-19T21:08:34.429Z,16
2023-01-19T21:10:34.529Z,15
2023-01-19T21:12:34.630Z,16
2023-01-19T21:14:34.733Z,18
2023-01-19T21:16:34.864Z,20
2023-01-19T21:18:34.963Z,20
2023-01-19T21:20:35.002Z,19
2023-01-19T21:24:35.185Z,23
2023-01-19T21:26:35.254Z,23
2023-01-19T21:28:35.369Z,20
2023-01-19T21:30:35.475Z,21
2023-01-19T21:32:35.530Z,28
2023-01-19T21:34:35.689Z,20
2023-01-19T21:36:35.778Z,17
2023-01-19T21:38:35.823Z,17
2023-01-19T21:40:35.891Z,18
2023-01-19T21:42:36.024Z,20
2023-01-19T21:44:36.110Z,17
2023-01-19T21:46:36.151Z,15
2023-01-19T21:48:36.216Z,14
2023-01-19T21:50:36.287Z,13
2023-01-19T21:52:36.376Z,12
2023-01-19T21:54:36.546Z,12
2023-01-19T21:56:36.622Z,15
2023-01-19T21:58:36.678Z,15
2023-01-19T22:00:36.776Z,15
2023-01-19T22:04:36.938Z,16
2023-01-19T22:06:37.016Z,19
2023-01-19T22:08:37.106Z,17
2023-01-19T22:11:07.268Z,18
2023-01-19T22:13:07.507Z,19
2023-01-19T22:15:07.480Z,18
2023-01-19T22:17:07.609Z,18
2023-01-19T22:19:07.745Z,18
2023-01-19T22:21:07.856Z,17
2023-01-19T22:23:07.967Z,18
2023-01-19T22:25:08.054Z,17
2023-01-19T22:27:08.181Z,17
2023-01-19T22:29:08.350Z,16
2023-01-19T22:31:08.551Z,16
2023-01-19T22:33:08.519Z,15
2023-01-19T22:35:08.619Z,12
2023-01-19T22:37:08.893Z,12
2023-01-19T22:39:08.880Z,11
2023-01-19T22:41:08.958Z,9
2023-01-19T22:43:09.076Z,9
2023-01-19T22:45:09.157Z,9
2023-01-19T22:47:09.307Z,9
2023-01-19T22:49:09.400Z,10
2023-01-19T22:51:09.533Z,10
2023-01-19T22:53:09.622Z,9
2023-01-19T22:55:09.756Z,10
2023-01-19T22:59:09.993Z,11
2023-01-19T23:01:10.348Z,11
2023-01-19T23:03:10.219Z,11
2023-01-19T23:05:10.444Z,13
2023-01-19T23:07:10.409Z,12
2023-01-19T23:09:10.563Z,17
2023-01-19T23:11:10.632Z,20
2023-01-19T23:13:10.749Z,21
2023-01-19T23:15:11.301Z,22
2023-01-19T23:17:10.993Z,21
2023-01-19T23:19:11.085Z,21
2023-01-19T23:21:11.213Z,22
2023-01-19T23:23:11.318Z,28
2023-01-19T23:25:11.620Z,22
2023-01-19T23:27:11.495Z,18
2023-01-19T23:29:11.647Z,18
2023-01-19T23:31:11.894Z,21
2023-01-19T23:33:11.837Z,24
2023-01-19T23:35:12.301Z,24
2023-01-19T23:37:12.061Z,22
2023-01-19T23:39:12.184Z,22
2023-01-19T23:41:12.289Z,21
2023-01-19T23:43:12.400Z,22
2023-01-19T23:45:12.824Z,21
2023-01-19T23:47:12.627Z,20
2023-01-19T23:49:12.705Z,20
2023-01-19T23:51:12.853Z,22
2023-01-19T23:53:12.928Z,20
2023-01-19T23:55:13.355Z,17
2023-01-19T23:59:13.242Z,19
